Red Lodge, MT (59068)

8:52 AM MST on December 05, 2016 (GMT -0700)
Island at Rock Creek | | Change Station
Active Advisory: Winter Weather Advisory

Elev 5545 ft 45.19 °N, 109.24 °W | Updated 33 seconds ago

Light Snow
Light Snow
15.3 °F
Feels Like 4 °F
N
8.3
Wind Variable Wind from NNW

Today
High -- | Low -- °F
--% Chance of Precip.
Yesterday
High -- | Low -- °F
Precip. -- in
Pressure 29.88 in
Visibility 9.0 miles
Clouds Few 1400 ft
Overcast 2400 ft
Windchill 4 °F
Dew Point 12 °F
Humidity 86%
Rainfall 0.00 in
Snow Depth Not available.
7:40 AM 4:34 PM
Waxing Crescent, 32% visible
METAR KCOD 051456Z AUTO 36011KT 9SM -SN FEW014 OVC024 M09/M11 A2975 RMK AO2 SLP118 P0000 60000 T10891106 51036 FZRANO
Pressure 29.88 in
Visibility 9.0 miles
Clouds Few 1400 ft
Overcast 2400 ft
Windchill 4 °F
Dew Point 12 °F
Humidity 86%
Rainfall 0.00 in
Snow Depth Not available.
7:40 AM 4:34 PM
Waxing Crescent, 32% visible
METAR KCOD 051456Z AUTO 36011KT 9SM -SN FEW014 OVC024 M09/M11 A2975 RMK AO2 SLP118 P0000 60000 T10891106 51036 FZRANO

10-Day Weather Forecast

Almanac

Astronomy

Dec. 05, 2016 Rise Set
Actual Time
Civil Twilight
Nautical Twilight
Astronomical Twilight
Moon
Length of Visible Light
Length of Day
Tomorrow will be .
, % of the Moon is Illuminated

Today's Extremes

State Highs State Lows

Community

WunderPhotos

Upload Photos

1,955,794 photos uploaded!

WunderBlog® & News

Nearby

Air Quality

  Air Quality AQ Index Pollutant
Not available.

Snow Depth

Station Depth Elevation

Earthquake Activity

City Distance Mag. Time & Date
Minimum magnitude displayed is 2.5.

Coastal Water Temperatures

Place Temperature

Stations

Nearby Weather Stations

Station Location Temp. Windchill Dew Point Humidity Wind Precip. Elev Updated Type
                   

Watches & Warnings

Winter Weather Advisory
Issued: 4:06 AM MST Dec. 5, 2016 – National Weather Service

... Winter Weather Advisory remains in effect until 6 PM MST this
evening...

* impacts... snow and falling temperatures will cause slick roads
and poor travel conditions.

* Timing... through today.

* Additional snow accumulation... 1 to 2 inches... except 2 to 3 inches
along the north facing foothills.

* Slick roads... accumulating snow has caused roads to be snow
packed and slick.

Precautionary/preparedness actions...

A Winter Weather Advisory can be issued for a variety of winter
weather conditions such as light snow... blowing snow... sleet...
freezing rain... and extreme wind chills.